sensor_id;sensor_type;location;lat;lon;timestamp;P1;durP1;ratioP1;P2;durP2;ratioP2
22421;SDS011;11378;51.642;7.668;2022-08-03T00:00:04;3.28;;;2.08;;
22421;SDS011;11378;51.642;7.668;2022-08-03T00:02:37;2.17;;;1.75;;
22421;SDS011;11378;51.642;7.668;2022-08-03T00:05:04;2.33;;;1.80;;
22421;SDS011;11378;51.642;7.668;2022-08-03T00:07:33;2.58;;;1.92;;
22421;SDS011;11378;51.642;7.668;2022-08-03T00:09:59;3.17;;;1.90;;
22421;SDS011;11378;51.642;7.668;2022-08-03T00:12:26;2.42;;;1.60;;
22421;SDS011;11378;51.642;7.668;2022-08-03T00:14:53;2.45;;;1.70;;
22421;SDS011;11378;51.642;7.668;2022-08-03T00:17:19;2.97;;;2.00;;
22421;SDS011;11378;51.642;7.668;2022-08-03T00:19:45;2.67;;;1.77;;
22421;SDS011;11378;51.642;7.668;2022-08-03T00:22:12;2.05;;;1.80;;
22421;SDS011;11378;51.642;7.668;2022-08-03T00:24:38;2.38;;;1.65;;
22421;SDS011;11378;51.642;7.668;2022-08-03T00:27:04;3.72;;;1.63;;
22421;SDS011;11378;51.642;7.668;2022-08-03T00:29:31;1.80;;;1.58;;
22421;SDS011;11378;51.642;7.668;2022-08-03T00:31:57;2.35;;;2.13;;
22421;SDS011;11378;51.642;7.668;2022-08-03T00:34:23;2.90;;;1.98;;
22421;SDS011;11378;51.642;7.668;2022-08-03T00:36:49;1.88;;;1.40;;
22421;SDS011;11378;51.642;7.668;2022-08-03T00:39:15;2.05;;;1.85;;
22421;SDS011;11378;51.642;7.668;2022-08-03T00:41:41;2.05;;;1.50;;
22421;SDS011;11378;51.642;7.668;2022-08-03T00:44:08;2.65;;;1.60;;
22421;SDS011;11378;51.642;7.668;2022-08-03T00:46:34;1.92;;;1.70;;
22421;SDS011;11378;51.642;7.668;2022-08-03T00:49:01;2.78;;;1.67;;
22421;SDS011;11378;51.642;7.668;2022-08-03T00:51:27;2.47;;;1.70;;
22421;SDS011;11378;51.642;7.668;2022-08-03T00:53:54;1.98;;;1.70;;
22421;SDS011;11378;51.642;7.668;2022-08-03T00:56:20;3.88;;;1.75;;
22421;SDS011;11378;51.642;7.668;2022-08-03T00:58:47;1.77;;;1.60;;
22421;SDS011;11378;51.642;7.668;2022-08-03T01:01:14;3.53;;;1.75;;
22421;SDS011;11378;51.642;7.668;2022-08-03T01:03:41;2.08;;;1.80;;
22421;SDS011;11378;51.642;7.668;2022-08-03T01:06:22;2.97;;;1.90;;
22421;SDS011;11378;51.642;7.668;2022-08-03T01:08:53;3.20;;;1.98;;
22421;SDS011;11378;51.642;7.668;2022-08-03T01:11:43;2.28;;;2.03;;
22421;SDS011;11378;51.642;7.668;2022-08-03T01:14:13;2.17;;;1.90;;
22421;SDS011;11378;51.642;7.668;2022-08-03T01:16:47;3.67;;;1.90;;
22421;SDS011;11378;51.642;7.668;2022-08-03T01:19:35;2.17;;;1.75;;
22421;SDS011;11378;51.642;7.668;2022-08-03T01:24:43;2.33;;;1.77;;
22421;SDS011;11378;51.642;7.668;2022-08-03T01:27:25;3.65;;;1.73;;
22421;SDS011;11378;51.642;7.668;2022-08-03T01:29:58;2.83;;;1.95;;
22421;SDS011;11378;51.642;7.668;2022-08-03T01:32:26;1.98;;;1.77;;
22421;SDS011;11378;51.642;7.668;2022-08-03T01:35:18;3.78;;;2.15;;
22421;SDS011;11378;51.642;7.668;2022-08-03T01:37:51;1.90;;;1.70;;
22421;SDS011;11378;51.642;7.668;2022-08-03T01:40:20;2.85;;;1.58;;
22421;SDS011;11378;51.642;7.668;2022-08-03T01:42:47;2.38;;;1.73;;
22421;SDS011;11378;51.642;7.668;2022-08-03T01:45:14;2.03;;;1.80;;
22421;SDS011;11378;51.642;7.668;2022-08-03T01:47:44;3.00;;;1.88;;
22421;SDS011;11378;51.642;7.668;2022-08-03T01:50:12;2.38;;;1.70;;
22421;SDS011;11378;51.642;7.668;2022-08-03T01:52:39;3.55;;;2.10;;
22421;SDS011;11378;51.642;7.668;2022-08-03T01:55:06;1.70;;;1.60;;
22421;SDS011;11378;51.642;7.668;2022-08-03T01:57:34;2.47;;;1.80;;
22421;SDS011;11378;51.642;7.668;2022-08-03T02:00:02;2.85;;;1.77;;
22421;SDS011;11378;51.642;7.668;2022-08-03T02:02:36;2.38;;;2.08;;
22421;SDS011;11378;51.642;7.668;2022-08-03T02:05:05;2.35;;;2.00;;
22421;SDS011;11378;51.642;7.668;2022-08-03T02:07:32;2.22;;;1.65;;
22421;SDS011;11378;51.642;7.668;2022-08-03T02:10:00;2.20;;;1.92;;
22421;SDS011;11378;51.642;7.668;2022-08-03T02:12:28;2.88;;;1.83;;
22421;SDS011;11378;51.642;7.668;2022-08-03T02:14:57;2.38;;;1.98;;
22421;SDS011;11378;51.642;7.668;2022-08-03T02:17:24;2.47;;;1.67;;
22421;SDS011;11378;51.642;7.668;2022-08-03T02:19:51;3.42;;;2.20;;
22421;SDS011;11378;51.642;7.668;2022-08-03T02:22:18;2.08;;;1.70;;
22421;SDS011;11378;51.642;7.668;2022-08-03T02:24:46;2.40;;;1.83;;
22421;SDS011;11378;51.642;7.668;2022-08-03T02:27:22;4.03;;;1.95;;
22421;SDS011;11378;51.642;7.668;2022-08-03T02:29:54;2.25;;;2.00;;
22421;SDS011;11378;51.642;7.668;2022-08-03T02:32:27;3.05;;;1.90;;
22421;SDS011;11378;51.642;7.668;2022-08-03T02:34:54;2.03;;;1.70;;
22421;SDS011;11378;51.642;7.668;2022-08-03T02:37:25;2.20;;;1.92;;
22421;SDS011;11378;51.642;7.668;2022-08-03T02:39:52;3.63;;;1.75;;
22421;SDS011;11378;51.642;7.668;2022-08-03T02:42:20;2.78;;;1.85;;
22421;SDS011;11378;51.642;7.668;2022-08-03T02:44:48;2.13;;;1.60;;
22421;SDS011;11378;51.642;7.668;2022-08-03T02:47:15;5.13;;;1.77;;
22421;SDS011;11378;51.642;7.668;2022-08-03T02:49:42;2.75;;;2.00;;
22421;SDS011;11378;51.642;7.668;2022-08-03T02:52:09;3.17;;;1.83;;
22421;SDS011;11378;51.642;7.668;2022-08-03T02:54:37;3.90;;;1.77;;
22421;SDS011;11378;51.642;7.668;2022-08-03T02:57:05;2.22;;;1.80;;
22421;SDS011;11378;51.642;7.668;2022-08-03T02:59:32;3.35;;;2.17;;
22421;SDS011;11378;51.642;7.668;2022-08-03T03:01:59;2.22;;;1.90;;
22421;SDS011;11378;51.642;7.668;2022-08-03T03:04:26;4.35;;;1.98;;
22421;SDS011;11378;51.642;7.668;2022-08-03T03:06:53;3.58;;;2.10;;
22421;SDS011;11378;51.642;7.668;2022-08-03T03:09:19;5.50;;;2.15;;
22421;SDS011;11378;51.642;7.668;2022-08-03T03:11:46;2.90;;;1.70;;
22421;SDS011;11378;51.642;7.668;2022-08-03T03:14:14;3.80;;;1.67;;
22421;SDS011;11378;51.642;7.668;2022-08-03T03:16:41;2.80;;;2.00;;
22421;SDS011;11378;51.642;7.668;2022-08-03T03:19:08;2.40;;;2.03;;
22421;SDS011;11378;51.642;7.668;2022-08-03T03:21:36;3.38;;;2.10;;
22421;SDS011;11378;51.642;7.668;2022-08-03T03:24:03;2.47;;;2.10;;
22421;SDS011;11378;51.642;7.668;2022-08-03T03:26:30;1.98;;;1.80;;
22421;SDS011;11378;51.642;7.668;2022-08-03T03:28:57;2.60;;;2.03;;
22421;SDS011;11378;51.642;7.668;2022-08-03T03:31:23;2.75;;;2.05;;
22421;SDS011;11378;51.642;7.668;2022-08-03T03:33:49;2.63;;;2.08;;
22421;SDS011;11378;51.642;7.668;2022-08-03T03:36:17;3.53;;;2.28;;
22421;SDS011;11378;51.642;7.668;2022-08-03T03:38:43;1.90;;;1.80;;
22421;SDS011;11378;51.642;7.668;2022-08-03T03:41:09;2.22;;;1.95;;
22421;SDS011;11378;51.642;7.668;2022-08-03T03:43:36;2.45;;;1.85;;
22421;SDS011;11378;51.642;7.668;2022-08-03T03:46:03;4.50;;;1.80;;
22421;SDS011;11378;51.642;7.668;2022-08-03T03:48:29;3.40;;;2.20;;
22421;SDS011;11378;51.642;7.668;2022-08-03T03:50:56;2.28;;;1.60;;
22421;SDS011;11378;51.642;7.668;2022-08-03T03:53:23;2.20;;;1.83;;
22421;SDS011;11378;51.642;7.668;2022-08-03T03:55:51;2.78;;;2.00;;
22421;SDS011;11378;51.642;7.668;2022-08-03T03:58:19;1.92;;;1.70;;
22421;SDS011;11378;51.642;7.668;2022-08-03T04:00:45;3.28;;;2.17;;
22421;SDS011;11378;51.642;7.668;2022-08-03T04:03:11;3.67;;;2.10;;
22421;SDS011;11378;51.642;7.668;2022-08-03T04:05:38;2.33;;;1.85;;
22421;SDS011;11378;51.642;7.668;2022-08-03T04:08:23;2.20;;;2.00;;
22421;SDS011;11378;51.642;7.668;2022-08-03T04:11:23;2.25;;;1.88;;
22421;SDS011;11378;51.642;7.668;2022-08-03T04:19:07;3.22;;;2.15;;
22421;SDS011;11378;51.642;7.668;2022-08-03T04:21:34;2.50;;;1.98;;
22421;SDS011;11378;51.642;7.668;2022-08-03T04:24:03;2.97;;;1.95;;
22421;SDS011;11378;51.642;7.668;2022-08-03T04:26:33;6.35;;;2.25;;
22421;SDS011;11378;51.642;7.668;2022-08-03T04:29:01;5.25;;;2.35;;
22421;SDS011;11378;51.642;7.668;2022-08-03T04:31:28;2.67;;;2.00;;
22421;SDS011;11378;51.642;7.668;2022-08-03T04:33:55;6.55;;;2.25;;
22421;SDS011;11378;51.642;7.668;2022-08-03T04:36:26;3.33;;;2.15;;
22421;SDS011;11378;51.642;7.668;2022-08-03T04:41:29;3.30;;;1.98;;
22421;SDS011;11378;51.642;7.668;2022-08-03T04:43:57;6.05;;;2.53;;
22421;SDS011;11378;51.642;7.668;2022-08-03T04:46:28;5.90;;;1.98;;
22421;SDS011;11378;51.642;7.668;2022-08-03T04:48:56;3.83;;;2.20;;
22421;SDS011;11378;51.642;7.668;2022-08-03T04:51:23;3.90;;;2.30;;
22421;SDS011;11378;51.642;7.668;2022-08-03T04:53:50;4.18;;;2.42;;
22421;SDS011;11378;51.642;7.668;2022-08-03T04:56:17;5.82;;;2.35;;
22421;SDS011;11378;51.642;7.668;2022-08-03T04:58:43;3.03;;;2.10;;
22421;SDS011;11378;51.642;7.668;2022-08-03T05:01:10;2.92;;;2.25;;
22421;SDS011;11378;51.642;7.668;2022-08-03T05:03:36;6.85;;;2.30;;
22421;SDS011;11378;51.642;7.668;2022-08-03T05:06:02;4.47;;;2.67;;
22421;SDS011;11378;51.642;7.668;2022-08-03T05:08:29;3.60;;;2.53;;
22421;SDS011;11378;51.642;7.668;2022-08-03T05:10:55;3.75;;;2.00;;
22421;SDS011;11378;51.642;7.668;2022-08-03T05:13:22;2.08;;;1.83;;
22421;SDS011;11378;51.642;7.668;2022-08-03T05:15:49;8.05;;;2.30;;
22421;SDS011;11378;51.642;7.668;2022-08-03T05:18:15;2.65;;;1.92;;
22421;SDS011;11378;51.642;7.668;2022-08-03T05:20:42;5.72;;;2.42;;
22421;SDS011;11378;51.642;7.668;2022-08-03T05:23:09;7.53;;;2.28;;
22421;SDS011;11378;51.642;7.668;2022-08-03T05:25:35;11.30;;;2.67;;
22421;SDS011;11378;51.642;7.668;2022-08-03T05:28:02;4.95;;;2.50;;
22421;SDS011;11378;51.642;7.668;2022-08-03T05:30:28;3.72;;;2.03;;
22421;SDS011;11378;51.642;7.668;2022-08-03T05:32:55;5.35;;;2.33;;
22421;SDS011;11378;51.642;7.668;2022-08-03T05:35:21;4.30;;;2.28;;
22421;SDS011;11378;51.642;7.668;2022-08-03T05:37:49;2.40;;;2.10;;
22421;SDS011;11378;51.642;7.668;2022-08-03T05:40:16;3.92;;;2.40;;
22421;SDS011;11378;51.642;7.668;2022-08-03T05:42:43;2.40;;;2.00;;
22421;SDS011;11378;51.642;7.668;2022-08-03T05:45:09;7.63;;;2.60;;
22421;SDS011;11378;51.642;7.668;2022-08-03T05:47:45;5.88;;;2.58;;
22421;SDS011;11378;51.642;7.668;2022-08-03T05:50:13;9.27;;;2.67;;
22421;SDS011;11378;51.642;7.668;2022-08-03T05:52:39;10.80;;;2.28;;
22421;SDS011;11378;51.642;7.668;2022-08-03T05:55:07;5.40;;;2.05;;
22421;SDS011;11378;51.642;7.668;2022-08-03T05:57:34;3.80;;;2.40;;
22421;SDS011;11378;51.642;7.668;2022-08-03T06:00:02;3.80;;;2.47;;
22421;SDS011;11378;51.642;7.668;2022-08-03T06:02:37;3.95;;;2.33;;
22421;SDS011;11378;51.642;7.668;2022-08-03T06:05:03;7.38;;;2.75;;
22421;SDS011;11378;51.642;7.668;2022-08-03T06:07:30;4.72;;;2.20;;
22421;SDS011;11378;51.642;7.668;2022-08-03T06:09:57;3.72;;;2.38;;
22421;SDS011;11378;51.642;7.668;2022-08-03T06:12:26;4.07;;;2.13;;
22421;SDS011;11378;51.642;7.668;2022-08-03T06:14:52;4.07;;;2.60;;
22421;SDS011;11378;51.642;7.668;2022-08-03T06:17:19;3.95;;;2.38;;
22421;SDS011;11378;51.642;7.668;2022-08-03T06:19:45;7.35;;;2.42;;
22421;SDS011;11378;51.642;7.668;2022-08-03T06:22:12;5.72;;;2.58;;
22421;SDS011;11378;51.642;7.668;2022-08-03T06:24:38;4.38;;;2.40;;
22421;SDS011;11378;51.642;7.668;2022-08-03T06:27:05;2.97;;;1.85;;
22421;SDS011;11378;51.642;7.668;2022-08-03T06:29:31;6.50;;;2.30;;
22421;SDS011;11378;51.642;7.668;2022-08-03T06:31:58;4.25;;;2.50;;
22421;SDS011;11378;51.642;7.668;2022-08-03T06:34:24;4.47;;;2.22;;
22421;SDS011;11378;51.642;7.668;2022-08-03T06:36:51;4.20;;;2.40;;
22421;SDS011;11378;51.642;7.668;2022-08-03T06:39:17;5.18;;;2.38;;
22421;SDS011;11378;51.642;7.668;2022-08-03T06:41:44;6.40;;;2.30;;
22421;SDS011;11378;51.642;7.668;2022-08-03T06:44:10;7.45;;;2.40;;
22421;SDS011;11378;51.642;7.668;2022-08-03T06:46:37;4.55;;;2.40;;
22421;SDS011;11378;51.642;7.668;2022-08-03T06:49:04;4.82;;;2.30;;
22421;SDS011;11378;51.642;7.668;2022-08-03T06:51:30;3.63;;;2.17;;
22421;SDS011;11378;51.642;7.668;2022-08-03T06:53:56;5.90;;;2.40;;
22421;SDS011;11378;51.642;7.668;2022-08-03T06:56:23;5.05;;;2.20;;
22421;SDS011;11378;51.642;7.668;2022-08-03T06:58:49;8.18;;;2.53;;
22421;SDS011;11378;51.642;7.668;2022-08-03T07:01:16;3.05;;;2.10;;
22421;SDS011;11378;51.642;7.668;2022-08-03T07:03:42;5.63;;;2.30;;
22421;SDS011;11378;51.642;7.668;2022-08-03T07:06:09;3.80;;;2.30;;
22421;SDS011;11378;51.642;7.668;2022-08-03T07:08:35;6.28;;;2.50;;
22421;SDS011;11378;51.642;7.668;2022-08-03T07:11:02;6.10;;;2.35;;
22421;SDS011;11378;51.642;7.668;2022-08-03T07:13:29;5.97;;;1.88;;
22421;SDS011;11378;51.642;7.668;2022-08-03T07:15:55;6.00;;;2.55;;
22421;SDS011;11378;51.642;7.668;2022-08-03T07:18:22;7.82;;;2.47;;
22421;SDS011;11378;51.642;7.668;2022-08-03T07:20:48;6.28;;;2.83;;
22421;SDS011;11378;51.642;7.668;2022-08-03T07:23:15;3.92;;;2.40;;
22421;SDS011;11378;51.642;7.668;2022-08-03T07:25:41;4.47;;;2.20;;
22421;SDS011;11378;51.642;7.668;2022-08-03T07:28:08;2.72;;;2.00;;
22421;SDS011;11378;51.642;7.668;2022-08-03T07:30:34;7.60;;;2.67;;
22421;SDS011;11378;51.642;7.668;2022-08-03T07:33:01;2.88;;;1.90;;
22421;SDS011;11378;51.642;7.668;2022-08-03T07:35:27;3.90;;;2.05;;
22421;SDS011;11378;51.642;7.668;2022-08-03T07:37:54;3.15;;;2.10;;
22421;SDS011;11378;51.642;7.668;2022-08-03T07:40:20;3.45;;;2.13;;
22421;SDS011;11378;51.642;7.668;2022-08-03T07:42:47;7.20;;;2.10;;
22421;SDS011;11378;51.642;7.668;2022-08-03T07:45:13;3.70;;;1.98;;
22421;SDS011;11378;51.642;7.668;2022-08-03T07:47:40;4.97;;;1.80;;
22421;SDS011;11378;51.642;7.668;2022-08-03T07:50:06;3.50;;;2.05;;
22421;SDS011;11378;51.642;7.668;2022-08-03T07:52:33;3.35;;;2.08;;
22421;SDS011;11378;51.642;7.668;2022-08-03T07:55:12;6.57;;;1.90;;
22421;SDS011;11378;51.642;7.668;2022-08-03T07:57:38;4.75;;;2.00;;
22421;SDS011;11378;51.642;7.668;2022-08-03T08:00:06;4.57;;;2.10;;
22421;SDS011;11378;51.642;7.668;2022-08-03T08:02:39;2.33;;;1.80;;
22421;SDS011;11378;51.642;7.668;2022-08-03T08:05:05;3.00;;;2.05;;
22421;SDS011;11378;51.642;7.668;2022-08-03T08:07:32;3.00;;;1.90;;
22421;SDS011;11378;51.642;7.668;2022-08-03T08:09:59;7.82;;;2.08;;
22421;SDS011;11378;51.642;7.668;2022-08-03T08:12:25;4.15;;;1.90;;
22421;SDS011;11378;51.642;7.668;2022-08-03T08:14:52;3.17;;;2.03;;
22421;SDS011;11378;51.642;7.668;2022-08-03T08:17:18;3.88;;;2.00;;
22421;SDS011;11378;51.642;7.668;2022-08-03T08:19:45;4.75;;;1.85;;
22421;SDS011;11378;51.642;7.668;2022-08-03T08:22:11;4.50;;;1.90;;
22421;SDS011;11378;51.642;7.668;2022-08-03T08:24:38;3.10;;;1.52;;
22421;SDS011;11378;51.642;7.668;2022-08-03T08:27:04;3.80;;;1.58;;
22421;SDS011;11378;51.642;7.668;2022-08-03T08:29:33;3.63;;;1.75;;
22421;SDS011;11378;51.642;7.668;2022-08-03T08:31:59;2.58;;;1.58;;
22421;SDS011;11378;51.642;7.668;2022-08-03T08:34:25;3.72;;;1.70;;
22421;SDS011;11378;51.642;7.668;2022-08-03T08:36:52;2.72;;;1.80;;
22421;SDS011;11378;51.642;7.668;2022-08-03T08:39:19;3.95;;;2.13;;
22421;SDS011;11378;51.642;7.668;2022-08-03T08:41:45;2.35;;;1.80;;
22421;SDS011;11378;51.642;7.668;2022-08-03T08:44:12;6.28;;;2.20;;
22421;SDS011;11378;51.642;7.668;2022-08-03T08:46:38;2.10;;;1.60;;
22421;SDS011;11378;51.642;7.668;2022-08-03T08:49:05;2.67;;;2.03;;
22421;SDS011;11378;51.642;7.668;2022-08-03T08:51:33;4.30;;;1.67;;
22421;SDS011;11378;51.642;7.668;2022-08-03T08:54:02;1.88;;;1.60;;
22421;SDS011;11378;51.642;7.668;2022-08-03T08:56:28;5.15;;;2.28;;
22421;SDS011;11378;51.642;7.668;2022-08-03T08:58:57;3.30;;;1.80;;
22421;SDS011;11378;51.642;7.668;2022-08-03T09:01:24;2.75;;;1.70;;
22421;SDS011;11378;51.642;7.668;2022-08-03T09:03:51;4.88;;;2.13;;
22421;SDS011;11378;51.642;7.668;2022-08-03T09:06:19;5.28;;;2.00;;
22421;SDS011;11378;51.642;7.668;2022-08-03T09:08:45;4.60;;;1.80;;
22421;SDS011;11378;51.642;7.668;2022-08-03T09:11:11;3.67;;;1.80;;
22421;SDS011;11378;51.642;7.668;2022-08-03T09:13:38;3.22;;;2.08;;
22421;SDS011;11378;51.642;7.668;2022-08-03T09:16:11;2.75;;;1.73;;
22421;SDS011;11378;51.642;7.668;2022-08-03T09:18:38;3.38;;;2.05;;
22421;SDS011;11378;51.642;7.668;2022-08-03T09:21:12;2.72;;;1.90;;
22421;SDS011;11378;51.642;7.668;2022-08-03T09:23:45;3.63;;;1.85;;
22421;SDS011;11378;51.642;7.668;2022-08-03T09:26:15;7.05;;;1.90;;
22421;SDS011;11378;51.642;7.668;2022-08-03T09:28:44;5.50;;;2.05;;
22421;SDS011;11378;51.642;7.668;2022-08-03T09:31:11;5.20;;;2.00;;
22421;SDS011;11378;51.642;7.668;2022-08-03T09:33:45;2.42;;;2.03;;
22421;SDS011;11378;51.642;7.668;2022-08-03T09:36:32;2.78;;;1.70;;
22421;SDS011;11378;51.642;7.668;2022-08-03T09:39:06;3.35;;;1.77;;
22421;SDS011;11378;51.642;7.668;2022-08-03T09:41:35;2.75;;;1.60;;
22421;SDS011;11378;51.642;7.668;2022-08-03T09:44:02;4.03;;;2.22;;
22421;SDS011;11378;51.642;7.668;2022-08-03T09:46:28;2.20;;;1.83;;
22421;SDS011;11378;51.642;7.668;2022-08-03T09:49:09;3.75;;;1.70;;
22421;SDS011;11378;51.642;7.668;2022-08-03T09:54:02;3.13;;;2.13;;
22421;SDS011;11378;51.642;7.668;2022-08-03T09:56:41;5.78;;;2.05;;
22421;SDS011;11378;51.642;7.668;2022-08-03T09:59:08;5.00;;;1.80;;
22421;SDS011;11378;51.642;7.668;2022-08-03T10:01:35;2.13;;;1.67;;
22421;SDS011;11378;51.642;7.668;2022-08-03T10:04:05;5.95;;;1.80;;
22421;SDS011;11378;51.642;7.668;2022-08-03T10:06:36;3.50;;;1.90;;
22421;SDS011;11378;51.642;7.668;2022-08-03T10:09:06;4.60;;;1.80;;
22421;SDS011;11378;51.642;7.668;2022-08-03T10:11:33;2.75;;;1.90;;
22421;SDS011;11378;51.642;7.668;2022-08-03T10:14:03;4.68;;;1.85;;
22421;SDS011;11378;51.642;7.668;2022-08-03T10:16:39;4.07;;;2.08;;
22421;SDS011;11378;51.642;7.668;2022-08-03T10:19:06;3.08;;;1.95;;
22421;SDS011;11378;51.642;7.668;2022-08-03T10:21:35;2.95;;;1.88;;
22421;SDS011;11378;51.642;7.668;2022-08-03T10:24:03;2.35;;;1.60;;
22421;SDS011;11378;51.642;7.668;2022-08-03T10:26:31;3.97;;;2.20;;
22421;SDS011;11378;51.642;7.668;2022-08-03T10:28:59;3.40;;;1.80;;
22421;SDS011;11378;51.642;7.668;2022-08-03T10:31:27;3.78;;;1.70;;
22421;SDS011;11378;51.642;7.668;2022-08-03T10:33:56;3.28;;;1.80;;
22421;SDS011;11378;51.642;7.668;2022-08-03T10:36:24;3.97;;;1.83;;
22421;SDS011;11378;51.642;7.668;2022-08-03T10:38:52;2.58;;;1.70;;
22421;SDS011;11378;51.642;7.668;2022-08-03T10:41:19;2.78;;;1.90;;
22421;SDS011;11378;51.642;7.668;2022-08-03T10:43:46;4.13;;;1.63;;
22421;SDS011;11378;51.642;7.668;2022-08-03T10:46:14;3.08;;;1.80;;
22421;SDS011;11378;51.642;7.668;2022-08-03T10:48:40;4.38;;;2.20;;
22421;SDS011;11378;51.642;7.668;2022-08-03T10:51:07;3.65;;;1.67;;
22421;SDS011;11378;51.642;7.668;2022-08-03T10:53:35;3.22;;;1.98;;
22421;SDS011;11378;51.642;7.668;2022-08-03T10:56:01;2.47;;;1.95;;
22421;SDS011;11378;51.642;7.668;2022-08-03T11:01:16;2.80;;;1.60;;
22421;SDS011;11378;51.642;7.668;2022-08-03T11:06:24;3.35;;;1.80;;
22421;SDS011;11378;51.642;7.668;2022-08-03T11:11:36;5.53;;;1.65;;
22421;SDS011;11378;51.642;7.668;2022-08-03T11:14:05;2.63;;;1.70;;
22421;SDS011;11378;51.642;7.668;2022-08-03T11:16:42;6.63;;;1.90;;
22421;SDS011;11378;51.642;7.668;2022-08-03T11:19:11;3.20;;;1.80;;
22421;SDS011;11378;51.642;7.668;2022-08-03T11:27:21;3.00;;;1.50;;
22421;SDS011;11378;51.642;7.668;2022-08-03T11:32:37;3.45;;;1.80;;
22421;SDS011;11378;51.642;7.668;2022-08-03T11:35:06;6.60;;;2.13;;
22421;SDS011;11378;51.642;7.668;2022-08-03T11:37:33;5.97;;;2.05;;
22421;SDS011;11378;51.642;7.668;2022-08-03T11:40:00;3.70;;;1.70;;
22421;SDS011;11378;51.642;7.668;2022-08-03T11:44:54;4.78;;;1.65;;
22421;SDS011;11378;51.642;7.668;2022-08-03T11:47:21;1.73;;;1.42;;
22421;SDS011;11378;51.642;7.668;2022-08-03T11:49:49;4.22;;;1.60;;
22421;SDS011;11378;51.642;7.668;2022-08-03T11:52:16;3.53;;;1.50;;
22421;SDS011;11378;51.642;7.668;2022-08-03T11:54:43;2.38;;;1.50;;
22421;SDS011;11378;51.642;7.668;2022-08-03T11:57:10;3.08;;;1.73;;
22421;SDS011;11378;51.642;7.668;2022-08-03T11:59:37;3.25;;;1.63;;
22421;SDS011;11378;51.642;7.668;2022-08-03T12:02:07;5.25;;;1.85;;
22421;SDS011;11378;51.642;7.668;2022-08-03T12:07:16;2.22;;;1.60;;
22421;SDS011;11378;51.642;7.668;2022-08-03T12:09:43;1.58;;;1.30;;
22421;SDS011;11378;51.642;7.668;2022-08-03T12:12:09;6.28;;;1.50;;
22421;SDS011;11378;51.642;7.668;2022-08-03T12:14:36;2.78;;;1.33;;
22421;SDS011;11378;51.642;7.668;2022-08-03T12:17:02;3.75;;;1.48;;
22421;SDS011;11378;51.642;7.668;2022-08-03T12:19:40;4.20;;;1.50;;
22421;SDS011;11378;51.642;7.668;2022-08-03T12:22:06;2.42;;;1.45;;
22421;SDS011;11378;51.642;7.668;2022-08-03T12:24:39;2.00;;;1.30;;
22421;SDS011;11378;51.642;7.668;2022-08-03T12:27:06;2.42;;;1.42;;
22421;SDS011;11378;51.642;7.668;2022-08-03T12:29:33;3.72;;;1.33;;
22421;SDS011;11378;51.642;7.668;2022-08-03T12:32:00;3.42;;;1.30;;
22421;SDS011;11378;51.642;7.668;2022-08-03T12:34:45;2.97;;;1.30;;
22421;SDS011;11378;51.642;7.668;2022-08-03T12:37:12;3.85;;;1.52;;
22421;SDS011;11378;51.642;7.668;2022-08-03T12:39:39;4.25;;;1.33;;
22421;SDS011;11378;51.642;7.668;2022-08-03T12:42:06;2.60;;;1.50;;
22421;SDS011;11378;51.642;7.668;2022-08-03T12:44:34;2.15;;;1.27;;
22421;SDS011;11378;51.642;7.668;2022-08-03T12:47:01;3.87;;;1.40;;
22421;SDS011;11378;51.642;7.668;2022-08-03T12:49:28;3.40;;;1.33;;
22421;SDS011;11378;51.642;7.668;2022-08-03T12:52:09;2.17;;;1.38;;
22421;SDS011;11378;51.642;7.668;2022-08-03T12:54:36;5.28;;;1.45;;
22421;SDS011;11378;51.642;7.668;2022-08-03T12:57:10;6.40;;;1.42;;
22421;SDS011;11378;51.642;7.668;2022-08-03T12:59:41;2.30;;;1.40;;
22421;SDS011;11378;51.642;7.668;2022-08-03T13:02:20;3.60;;;1.38;;
22421;SDS011;11378;51.642;7.668;2022-08-03T13:04:46;2.17;;;1.40;;
22421;SDS011;11378;51.642;7.668;2022-08-03T13:07:14;2.72;;;1.40;;
22421;SDS011;11378;51.642;7.668;2022-08-03T13:09:44;2.40;;;1.45;;
22421;SDS011;11378;51.642;7.668;2022-08-03T13:12:14;2.90;;;1.40;;
22421;SDS011;11378;51.642;7.668;2022-08-03T13:14:41;3.00;;;1.65;;
22421;SDS011;11378;51.642;7.668;2022-08-03T13:17:08;2.38;;;1.23;;
22421;SDS011;11378;51.642;7.668;2022-08-03T13:19:35;4.25;;;1.38;;
22421;SDS011;11378;51.642;7.668;2022-08-03T13:24:37;4.03;;;1.55;;
22421;SDS011;11378;51.642;7.668;2022-08-03T13:27:04;4.82;;;1.58;;
22421;SDS011;11378;51.642;7.668;2022-08-03T13:29:32;4.03;;;1.50;;
22421;SDS011;11378;51.642;7.668;2022-08-03T13:31:58;3.88;;;1.70;;
22421;SDS011;11378;51.642;7.668;2022-08-03T13:34:24;2.85;;;1.50;;
22421;SDS011;11378;51.642;7.668;2022-08-03T13:36:51;1.85;;;1.10;;
22421;SDS011;11378;51.642;7.668;2022-08-03T13:39:17;2.15;;;1.27;;
22421;SDS011;11378;51.642;7.668;2022-08-03T13:41:46;1.50;;;1.20;;
22421;SDS011;11378;51.642;7.668;2022-08-03T13:44:13;6.65;;;1.35;;
22421;SDS011;11378;51.642;7.668;2022-08-03T13:46:39;4.13;;;1.20;;
22421;SDS011;11378;51.642;7.668;2022-08-03T13:49:06;4.00;;;1.33;;
22421;SDS011;11378;51.642;7.668;2022-08-03T13:51:32;2.72;;;1.25;;
22421;SDS011;11378;51.642;7.668;2022-08-03T13:53:58;2.03;;;1.05;;
22421;SDS011;11378;51.642;7.668;2022-08-03T13:56:25;3.15;;;1.30;;
22421;SDS011;11378;51.642;7.668;2022-08-03T13:58:51;4.15;;;1.08;;
22421;SDS011;11378;51.642;7.668;2022-08-03T14:01:17;5.63;;;1.70;;
22421;SDS011;11378;51.642;7.668;2022-08-03T14:03:43;3.20;;;1.35;;
22421;SDS011;11378;51.642;7.668;2022-08-03T14:06:12;1.77;;;1.10;;
22421;SDS011;11378;51.642;7.668;2022-08-03T14:08:38;2.70;;;1.35;;
22421;SDS011;11378;51.642;7.668;2022-08-03T14:11:05;1.92;;;1.20;;
22421;SDS011;11378;51.642;7.668;2022-08-03T14:13:31;3.13;;;1.10;;
22421;SDS011;11378;51.642;7.668;2022-08-03T14:15:57;1.67;;;1.17;;
22421;SDS011;11378;51.642;7.668;2022-08-03T14:18:23;4.10;;;1.35;;
22421;SDS011;11378;51.642;7.668;2022-08-03T14:20:49;2.25;;;1.38;;
22421;SDS011;11378;51.642;7.668;2022-08-03T14:23:16;5.70;;;1.27;;
22421;SDS011;11378;51.642;7.668;2022-08-03T14:25:42;3.72;;;1.27;;
22421;SDS011;11378;51.642;7.668;2022-08-03T14:28:08;2.85;;;1.20;;
22421;SDS011;11378;51.642;7.668;2022-08-03T14:30:34;3.05;;;1.10;;
22421;SDS011;11378;51.642;7.668;2022-08-03T14:33:00;1.73;;;1.27;;
22421;SDS011;11378;51.642;7.668;2022-08-03T14:35:26;4.28;;;1.30;;
22421;SDS011;11378;51.642;7.668;2022-08-03T14:37:52;3.75;;;1.20;;
22421;SDS011;11378;51.642;7.668;2022-08-03T14:40:19;4.30;;;1.23;;
22421;SDS011;11378;51.642;7.668;2022-08-03T14:42:45;5.13;;;1.40;;
22421;SDS011;11378;51.642;7.668;2022-08-03T14:45:12;1.52;;;1.17;;
22421;SDS011;11378;51.642;7.668;2022-08-03T14:47:39;3.45;;;1.08;;
22421;SDS011;11378;51.642;7.668;2022-08-03T14:50:06;3.22;;;1.30;;
22421;SDS011;11378;51.642;7.668;2022-08-03T14:52:32;1.65;;;1.30;;
22421;SDS011;11378;51.642;7.668;2022-08-03T14:54:59;2.90;;;1.38;;
22421;SDS011;11378;51.642;7.668;2022-08-03T14:57:25;3.42;;;1.40;;
22421;SDS011;11378;51.642;7.668;2022-08-03T14:59:52;4.95;;;1.25;;
22421;SDS011;11378;51.642;7.668;2022-08-03T15:02:18;3.05;;;1.30;;
22421;SDS011;11378;51.642;7.668;2022-08-03T15:04:45;2.17;;;1.30;;
22421;SDS011;11378;51.642;7.668;2022-08-03T15:07:11;4.68;;;1.02;;
22421;SDS011;11378;51.642;7.668;2022-08-03T15:09:37;3.25;;;1.10;;
22421;SDS011;11378;51.642;7.668;2022-08-03T15:12:07;4.40;;;1.25;;
22421;SDS011;11378;51.642;7.668;2022-08-03T15:14:33;3.70;;;1.20;;
22421;SDS011;11378;51.642;7.668;2022-08-03T15:16:59;2.35;;;1.02;;
22421;SDS011;11378;51.642;7.668;2022-08-03T15:19:25;2.45;;;1.10;;
22421;SDS011;11378;51.642;7.668;2022-08-03T15:21:52;1.88;;;0.90;;
22421;SDS011;11378;51.642;7.668;2022-08-03T15:24:18;2.38;;;1.10;;
22421;SDS011;11378;51.642;7.668;2022-08-03T15:26:44;3.45;;;1.00;;
22421;SDS011;11378;51.642;7.668;2022-08-03T15:29:10;2.05;;;1.08;;